createdAt,value
2019-04-01T00:00:00.340Z,96340.36
2019-04-01T00:02:27.416Z,96335.26
2019-04-01T00:04:54.710Z,96331.50
2019-04-01T00:07:21.763Z,96327.55
2019-04-01T00:09:49.062Z,96327.16
2019-04-01T00:12:16.366Z,96323.54
2019-04-01T00:14:43.402Z,96327.23
2019-04-01T00:17:10.704Z,96322.88
2019-04-01T00:19:37.995Z,96320.14
2019-04-01T00:22:05.312Z,96325.71
2019-04-01T00:24:32.589Z,96324.07
2019-04-01T00:26:59.890Z,96316.56
2019-04-01T00:29:27.192Z,96322.15
2019-04-01T00:31:54.491Z,96314.78
2019-04-01T00:34:21.540Z,96316.98
2019-04-01T00:36:48.867Z,96323.22
2019-04-01T00:39:16.163Z,96317.63
2019-04-01T00:41:43.219Z,96320.23
2019-04-01T00:44:10.255Z,96319.48
2019-04-01T00:46:37.564Z,96316.21
2019-04-01T00:49:04.604Z,96313.72
2019-04-01T00:51:31.908Z,96319.08
2019-04-01T00:53:59.209Z,96313.68
2019-04-01T00:56:26.506Z,96309.12
2019-04-01T00:58:53.568Z,96309.26
2019-04-01T01:01:20.850Z,96308.99
2019-04-01T01:03:47.906Z,96309.58
2019-04-01T01:06:14.941Z,96312.72
2019-04-01T01:08:42.069Z,96306.03
2019-04-01T01:11:09.345Z,96305.92
2019-04-01T01:16:11.908Z,96308.79
2019-04-01T01:18:39.251Z,96303.66
2019-04-01T01:21:06.590Z,96303.66
2019-04-01T01:23:33.946Z,96301.34
2019-04-01T01:26:01.240Z,96297.44
2019-04-01T01:28:28.294Z,96297.63
2019-04-01T01:30:55.720Z,96300.36
2019-04-01T01:33:22.784Z,96294.99
2019-04-01T01:35:49.824Z,96290.20
2019-04-01T01:38:16.889Z,96296.69
2019-04-01T01:43:31.876Z,96296.46
2019-04-01T01:45:58.925Z,96291.12
2019-04-01T01:48:26.336Z,96293.08
2019-04-01T01:50:53.390Z,96294.30
2019-04-01T01:53:20.451Z,96291.78
2019-04-01T01:55:47.730Z,96296.97
2019-04-01T01:58:14.782Z,96289.92
2019-04-01T02:00:41.900Z,96290.11
2019-04-01T02:03:10.843Z,96288.39
2019-04-01T02:05:38.232Z,96291.93
2019-04-01T02:08:05.587Z,96290.23
2019-04-01T02:10:32.944Z,96291.97
2019-04-01T02:13:00.315Z,96287.31
2019-04-01T02:15:27.652Z,96285.67
2019-04-01T02:17:54.965Z,96286.83
2019-04-01T02:20:22.008Z,96287.31
2019-04-01T02:22:49.407Z,96283.94
2019-04-01T02:25:16.750Z,96277.59
2019-04-01T02:27:44.138Z,96278.42
2019-04-01T02:30:11.221Z,96274.19
2019-04-01T02:32:38.251Z,96278.46
2019-04-01T02:35:05.302Z,96277.90
2019-04-01T02:37:32.620Z,96277.77
2019-04-01T02:39:59.986Z,96276.73
2019-04-01T02:42:27.348Z,96275.70
2019-04-01T02:44:54.400Z,96279.75
2019-04-01T02:47:21.688Z,96272.20
2019-04-01T02:49:48.746Z,96265.03
2019-04-01T02:52:16.037Z,96263.30
2019-04-01T02:54:43.337Z,96259.97
2019-04-01T02:57:10.645Z,96264.41
2019-04-01T02:59:38.106Z,96265.89
2019-04-01T03:02:05.483Z,96267.28
2019-04-01T03:04:32.789Z,96261.97
2019-04-01T03:07:00.070Z,96266.93
2019-04-01T03:09:27.251Z,96267.41
2019-04-01T03:11:54.609Z,96263.65
2019-04-01T03:14:21.663Z,96264.89
2019-04-01T03:16:48.705Z,96263.12
2019-04-01T03:19:15.763Z,96264.80
2019-04-01T03:21:43.090Z,96269.28
2019-04-01T03:24:10.441Z,96265.27
2019-04-01T03:26:37.780Z,96266.82
2019-04-01T03:29:05.137Z,96262.72
2019-04-01T03:31:32.663Z,96269.80
2019-04-01T03:34:00.056Z,96263.58
2019-04-01T03:36:27.352Z,96264.78
2019-04-01T03:38:54.417Z,96265.72
2019-04-01T03:41:21.809Z,96261.28
2019-04-01T03:43:49.119Z,96265.28
2019-04-01T03:46:16.415Z,96268.56
2019-04-01T03:48:43.776Z,96260.93
2019-04-01T03:51:11.135Z,96267.27
2019-04-01T03:53:38.205Z,96266.14
2019-04-01T03:56:10.238Z,96261.81
2019-04-01T03:58:37.611Z,96261.69
2019-04-01T04:01:04.953Z,96263.27
2019-04-01T04:03:32.322Z,96260.23
2019-04-01T04:05:59.373Z,96263.86
2019-04-01T04:08:26.709Z,96269.16
2019-04-01T04:10:54.019Z,96263.64
2019-04-01T04:13:21.412Z,96265.88
2019-04-01T04:15:48.728Z,96271.41
2019-04-01T04:18:15.776Z,96266.64
2019-04-01T04:20:43.171Z,96272.63
2019-04-01T04:23:10.560Z,96272.53
2019-04-01T04:25:37.603Z,96279.81
2019-04-01T04:28:04.941Z,96277.36
2019-04-01T04:30:32.306Z,96274.55
2019-04-01T04:32:59.353Z,96276.78
2019-04-01T04:35:26.402Z,96279.50
2019-04-01T04:37:53.453Z,96277.38
2019-04-01T04:40:20.748Z,96280.69
2019-04-01T04:42:47.805Z,96280.81
2019-04-01T04:45:15.189Z,96280.94
2019-04-01T04:47:42.545Z,96286.36
2019-04-01T04:50:09.619Z,96288.00
2019-04-01T04:52:36.895Z,96290.36
2019-04-01T04:55:04.246Z,96291.53
2019-04-01T04:57:31.276Z,96290.34
2019-04-01T04:59:58.317Z,96295.04
2019-04-01T05:02:25.376Z,96296.91
2019-04-01T05:04:52.699Z,96296.20
2019-04-01T05:07:19.759Z,96295.96
2019-04-01T05:09:47.128Z,96292.78
2019-04-01T05:12:14.182Z,96290.41
2019-04-01T05:14:41.519Z,96290.80
2019-04-01T05:17:08.580Z,96297.13
2019-04-01T05:19:35.801Z,96300.00
2019-04-01T05:22:02.856Z,96299.56
2019-04-01T05:24:29.900Z,96294.59
2019-04-01T05:26:57.255Z,96298.45
2019-04-01T05:29:24.616Z,96300.73
2019-04-01T05:31:51.987Z,96302.36
2019-04-01T05:34:19.326Z,96304.47
2019-04-01T05:36:46.375Z,96303.52
2019-04-01T05:39:13.750Z,96303.23
2019-04-01T05:41:41.080Z,96305.35
2019-04-01T05:44:08.433Z,96305.28
2019-04-01T05:46:35.786Z,96309.92
2019-04-01T05:49:02.833Z,96310.88
2019-04-01T05:51:29.909Z,96314.45
2019-04-01T05:53:58.088Z,96315.94
2019-04-01T05:56:40.736Z,96316.45
2019-04-01T05:59:08.030Z,96312.08
2019-04-01T06:01:35.388Z,96314.30
2019-04-01T06:04:02.436Z,96316.20
2019-04-01T06:06:29.783Z,96310.07
2019-04-01T06:08:56.979Z,96307.07
2019-04-01T06:11:24.299Z,96313.20
2019-04-01T06:13:51.353Z,96313.84
2019-04-01T06:16:18.391Z,96317.77
2019-04-01T06:18:45.757Z,96313.08
2019-04-01T06:21:12.794Z,96311.94
2019-04-01T06:23:40.167Z,96309.33
2019-04-01T06:26:07.472Z,96310.50
2019-04-01T06:28:34.605Z,96309.80
2019-04-01T06:31:01.652Z,96302.56
2019-04-01T06:33:28.962Z,96305.17
2019-04-01T06:35:56.325Z,96308.88
2019-04-01T06:38:23.380Z,96312.70
2019-04-01T06:40:50.428Z,96312.55
2019-04-01T06:43:17.758Z,96313.78
2019-04-01T06:45:44.812Z,96309.52
2019-04-01T06:48:12.160Z,96308.77
2019-04-01T06:50:39.519Z,96306.59
2019-04-01T06:53:06.872Z,96308.78
2019-04-01T06:55:33.923Z,96304.30
2019-04-01T06:58:04.856Z,96310.67
2019-04-01T07:00:32.234Z,96305.58
2019-04-01T07:03:00.418Z,96298.13
2019-04-01T07:05:27.741Z,96298.95
2019-04-01T07:07:55.100Z,96304.02
2019-04-01T07:10:24.818Z,96303.95
2019-04-01T07:12:51.166Z,96300.38
2019-04-01T07:15:18.518Z,96301.83
2019-04-01T07:17:53.046Z,96294.17
2019-04-01T07:22:55.409Z,96299.36
2019-04-01T07:25:22.460Z,96302.64
2019-04-01T07:27:49.813Z,96298.66
2019-04-01T07:30:17.187Z,96303.04
2019-04-01T07:32:44.229Z,96302.78
2019-04-01T07:35:11.289Z,96299.39
2019-04-01T07:37:38.650Z,96302.97
2019-04-01T07:40:05.976Z,96305.83
2019-04-01T07:42:33.105Z,96308.51
2019-04-01T07:45:00.472Z,96307.05
2019-04-01T07:47:27.727Z,96307.91
2019-04-01T07:49:54.800Z,96303.16
2019-04-01T07:52:21.833Z,96308.64
2019-04-01T07:54:49.196Z,96318.16
2019-04-01T07:57:32.809Z,96309.09
2019-04-01T08:00:00.380Z,96303.25
2019-04-01T08:02:27.509Z,96297.41
2019-04-01T08:04:54.815Z,96298.27
2019-04-01T08:07:22.138Z,96296.23
2019-04-01T08:09:49.413Z,96304.27
2019-04-01T08:12:16.844Z,96295.73
2019-04-01T08:14:44.202Z,96299.99
2019-04-01T08:17:11.566Z,96301.02
2019-04-01T08:19:38.917Z,96293.36
2019-04-01T08:22:06.270Z,96296.75
2019-04-01T08:24:33.581Z,96293.44
2019-04-01T08:27:00.979Z,96295.45
2019-04-01T08:29:30.365Z,96287.06
2019-04-01T08:31:56.789Z,96292.38
2019-04-01T08:34:24.187Z,96296.51
2019-04-01T08:36:51.481Z,96295.63
2019-04-01T08:39:18.900Z,96285.17
2019-04-01T08:41:46.255Z,96291.24
2019-04-01T08:44:13.588Z,96289.55
2019-04-01T08:46:40.949Z,96299.81
2019-04-01T08:49:14.000Z,96291.02
2019-04-01T08:51:47.050Z,96283.73
2019-04-01T08:54:17.908Z,96285.71
2019-04-01T08:56:44.967Z,96281.62
2019-04-01T08:59:18.145Z,96280.11
2019-04-01T09:01:48.735Z,96275.16
2019-04-01T09:06:50.963Z,96270.02
2019-04-01T09:09:18.221Z,96270.89
2019-04-01T09:11:53.539Z,96279.59
2019-04-01T09:16:56.880Z,96272.32
2019-04-01T09:19:26.329Z,96275.88
2019-04-01T09:22:03.550Z,96268.44
2019-04-01T09:29:44.830Z,96268.55
2019-04-01T09:32:24.295Z,96269.17
2019-04-01T09:34:51.354Z,96262.03
2019-04-01T09:37:18.615Z,96266.42
2019-04-01T09:39:47.049Z,96259.21
2019-04-01T09:42:29.327Z,96261.89
2019-04-01T09:44:56.728Z,96259.42
2019-04-01T09:47:23.903Z,96257.44
2019-04-01T09:49:51.315Z,96251.75
2019-04-01T09:52:33.121Z,96254.50
2019-04-01T09:55:00.475Z,96249.23
2019-04-01T09:57:27.540Z,96249.49
2019-04-01T09:59:58.512Z,96241.52
2019-04-01T10:02:36.902Z,96252.44
2019-04-01T10:05:05.094Z,96254.25
2019-04-01T10:13:03.562Z,96230.97
2019-04-01T10:15:31.095Z,96237.98
2019-04-01T10:18:03.569Z,96223.35
2019-04-01T10:23:03.583Z,96231.59
2019-04-01T10:25:31.003Z,96217.03
2019-04-01T10:28:03.387Z,96215.21
2019-04-01T10:30:34.156Z,96220.11
2019-04-01T10:33:02.779Z,96223.95
2019-04-01T10:38:18.302Z,96210.77
2019-04-01T10:40:47.524Z,96202.87
2019-04-01T10:43:14.571Z,96199.00
2019-04-01T10:48:16.060Z,96204.45
2019-04-01T10:50:43.448Z,96198.06
2019-04-01T10:53:11.295Z,96199.89
2019-04-01T10:55:38.694Z,96192.67
2019-04-01T10:58:06.053Z,96187.39
2019-04-01T11:00:33.134Z,96186.93
2019-04-01T11:03:00.195Z,96188.55
2019-04-01T11:05:27.214Z,96190.45
2019-04-01T11:07:54.657Z,96186.42
2019-04-01T11:10:23.119Z,96182.81
2019-04-01T11:12:50.473Z,96183.47
2019-04-01T11:15:17.825Z,96173.41
2019-04-01T11:17:44.886Z,96169.72
2019-04-01T11:20:18.880Z,96177.67
2019-04-01T11:22:46.268Z,96173.78
2019-04-01T11:25:13.607Z,96170.48
2019-04-01T11:27:40.663Z,96165.59
2019-04-01T11:30:08.494Z,96158.53
2019-04-01T11:32:36.104Z,96168.41
2019-04-01T11:35:03.532Z,96162.45
2019-04-01T11:42:44.769Z,96156.75
2019-04-01T11:45:12.159Z,96163.58
2019-04-01T11:47:39.508Z,96153.33
2019-04-01T11:50:06.814Z,96149.80
2019-04-01T11:52:34.184Z,96150.80
2019-04-01T11:55:01.447Z,96144.33
2019-04-01T11:57:28.687Z,96140.53
2019-04-01T11:59:56.022Z,96165.88
2019-04-01T12:02:23.372Z,96147.64
2019-04-01T12:04:50.729Z,96135.00
2019-04-01T12:07:17.793Z,96138.92
2019-04-01T12:09:44.864Z,96135.23
2019-04-01T12:12:23.604Z,96130.08
2019-04-01T12:14:41.277Z,96138.23
2019-04-01T12:17:08.580Z,96132.02
2019-04-01T12:19:35.636Z,96123.69
2019-04-01T12:22:02.688Z,96118.06
2019-04-01T12:24:30.001Z,96104.59
2019-04-01T12:26:57.343Z,96102.89
2019-04-01T12:29:24.397Z,96105.38
2019-04-01T12:31:51.792Z,96102.12
2019-04-01T12:34:19.058Z,96097.67
2019-04-01T12:36:46.127Z,96093.78
2019-04-01T12:39:13.173Z,96095.70
2019-04-01T12:41:40.543Z,96086.73
2019-04-01T12:44:07.918Z,96081.93
2019-04-01T12:46:34.964Z,96094.73
2019-04-01T12:49:02.320Z,96081.54
2019-04-01T12:51:29.365Z,96079.36
2019-04-01T12:53:56.420Z,96078.89
2019-04-01T12:56:23.671Z,96072.61
2019-04-01T12:58:50.739Z,96077.36
2019-04-01T13:01:17.781Z,96068.68
2019-04-01T13:03:44.842Z,96074.19
2019-04-01T13:06:12.151Z,96071.66
2019-04-01T13:08:39.504Z,96066.98
2019-04-01T13:11:06.864Z,96063.05
2019-04-01T13:13:34.234Z,96063.28
2019-04-01T13:16:01.285Z,96053.25
2019-04-01T13:18:28.618Z,96047.84
2019-04-01T13:20:55.995Z,96045.87
2019-04-01T13:23:23.062Z,96044.71
2019-04-01T13:25:50.376Z,96051.88
2019-04-01T13:28:17.750Z,96040.56
2019-04-01T13:30:44.801Z,96042.80
2019-04-01T13:33:11.861Z,96038.14
2019-04-01T13:35:39.970Z,96036.02
2019-04-01T13:38:10.670Z,96028.20
2019-04-01T13:40:35.893Z,96028.41
2019-04-01T13:43:04.621Z,96029.63
2019-04-01T13:45:32.206Z,96025.18
2019-04-01T13:48:00.667Z,96027.51
2019-04-01T13:50:29.044Z,96012.29
2019-04-01T13:52:56.109Z,96009.98
2019-04-01T13:55:23.470Z,96011.53
2019-04-01T13:57:50.512Z,96004.60
2019-04-01T14:00:17.815Z,96002.61
2019-04-01T14:02:45.210Z,96001.79
2019-04-01T14:05:12.564Z,95996.20
2019-04-01T14:07:39.917Z,96002.73
2019-04-01T14:10:07.276Z,95998.27
2019-04-01T14:12:34.348Z,95996.89
2019-04-01T14:15:01.682Z,95992.84
2019-04-01T14:17:30.058Z,95989.52
2019-04-01T14:19:57.122Z,95987.85
2019-04-01T14:22:24.458Z,95987.41
2019-04-01T14:24:51.816Z,95987.36
2019-04-01T14:27:21.319Z,95988.70
2019-04-01T14:29:48.698Z,95984.39
2019-04-01T14:32:18.047Z,95989.71
2019-04-01T14:37:26.227Z,95990.80
2019-04-01T14:39:53.507Z,95989.38
2019-04-01T14:42:29.404Z,95986.53
2019-04-01T14:45:01.370Z,95977.88
2019-04-01T14:47:28.905Z,95984.16
2019-04-01T14:50:02.910Z,95977.27
2019-04-01T14:55:05.121Z,95967.02
2019-04-01T14:57:46.124Z,95971.25
2019-04-01T15:00:13.200Z,95969.45
2019-04-01T15:02:55.750Z,95970.97
2019-04-01T15:05:28.509Z,95966.47
2019-04-01T15:08:00.063Z,95963.64
2019-04-01T15:15:39.966Z,95961.73
2019-04-01T15:18:14.104Z,95962.03
2019-04-01T15:20:43.794Z,95953.22
2019-04-01T15:23:15.120Z,95943.68
2019-04-01T15:25:47.556Z,95943.99
2019-04-01T15:28:18.083Z,95946.02
2019-04-01T15:30:49.169Z,95943.67
2019-04-01T15:33:31.105Z,95941.22
2019-04-01T15:36:05.522Z,95944.77
2019-04-01T15:38:40.167Z,95947.30
2019-04-01T15:41:07.224Z,95939.61
2019-04-01T15:43:34.572Z,95940.03
2019-04-01T15:46:04.045Z,95940.64
2019-04-01T15:48:30.382Z,95937.52
2019-04-01T15:50:57.761Z,95928.54
2019-04-01T15:53:24.863Z,95931.08
2019-04-01T15:55:52.145Z,95928.84
2019-04-01T15:58:19.501Z,95932.80
2019-04-01T16:00:46.856Z,95930.16
2019-04-01T16:03:14.235Z,95928.95
2019-04-01T16:05:41.303Z,95927.53
2019-04-01T16:08:08.347Z,95924.59
2019-04-01T16:10:35.764Z,95920.03
2019-04-01T16:13:03.148Z,95919.83
2019-04-01T16:15:32.261Z,95914.26
2019-04-01T16:17:59.523Z,95911.12
2019-04-01T16:20:26.589Z,95908.38
2019-04-01T16:22:53.791Z,95906.25
2019-04-01T16:25:20.849Z,95904.95
2019-04-01T16:27:48.173Z,95904.53
2019-04-01T16:30:15.547Z,95908.59
2019-04-01T16:32:42.594Z,95906.35
2019-04-01T16:35:09.653Z,95903.95
2019-04-01T16:37:37.217Z,95906.78
2019-04-01T16:40:05.930Z,95896.11
2019-04-01T16:42:33.224Z,95897.92
2019-04-01T16:45:00.501Z,95896.79
2019-04-01T16:47:27.930Z,95894.14
2019-04-01T16:49:55.237Z,95897.78
2019-04-01T16:52:22.600Z,95899.30
2019-04-01T16:54:50.105Z,95893.02
2019-04-01T16:57:17.170Z,95898.98
2019-04-01T16:59:44.213Z,95897.45
2019-04-01T17:02:17.865Z,95889.06
2019-04-01T17:04:40.363Z,95898.36
2019-04-01T17:07:07.427Z,95890.84
2019-04-01T17:09:35.159Z,95894.45
2019-04-01T17:12:03.333Z,95897.45
2019-04-01T17:14:30.378Z,95898.92
2019-04-01T17:16:57.435Z,95901.33
2019-04-01T17:19:27.713Z,95907.86
2019-04-01T17:21:53.538Z,95904.77
2019-04-01T17:24:20.999Z,95907.55
2019-04-01T17:26:48.011Z,95902.48
2019-04-01T17:29:16.453Z,95901.86
2019-04-01T17:31:43.762Z,95900.50
2019-04-01T17:34:11.181Z,95901.02
2019-04-01T17:36:40.121Z,95901.21
2019-04-01T17:39:07.239Z,95902.47
2019-04-01T17:41:34.871Z,95901.48
2019-04-01T17:44:01.920Z,95901.74
2019-04-01T17:49:02.686Z,95906.63
2019-04-01T17:54:08.286Z,95911.22
2019-04-01T17:59:19.543Z,95914.03
2019-04-01T18:01:46.606Z,95907.84
2019-04-01T18:04:14.581Z,95904.28
2019-04-01T18:06:42.767Z,95907.78
2019-04-01T18:09:16.853Z,95904.41
2019-04-01T18:11:45.067Z,95902.53
2019-04-01T18:16:57.893Z,95905.76
2019-04-01T18:19:25.299Z,95914.63
2019-04-01T18:21:52.676Z,95914.06
2019-04-01T18:24:20.036Z,95916.42
2019-04-01T18:26:47.341Z,95916.99
2019-04-01T18:29:14.468Z,95918.98
2019-04-01T18:31:41.895Z,95914.05
2019-04-01T18:34:08.943Z,95922.28
2019-04-01T18:36:35.992Z,95922.52
2019-04-01T18:39:04.057Z,95928.30
2019-04-01T18:41:31.828Z,95929.84
2019-04-01T18:46:41.177Z,95927.84
2019-04-01T18:49:08.518Z,95932.49
2019-04-01T18:51:36.601Z,95930.73
2019-04-01T18:54:05.076Z,95930.28
2019-04-01T18:56:32.533Z,95932.48
2019-04-01T18:58:59.884Z,95934.47
2019-04-01T19:01:26.932Z,95928.06
2019-04-01T19:03:54.283Z,95935.56
2019-04-01T19:06:21.713Z,95939.98
2019-04-01T19:08:50.222Z,95936.69
2019-04-01T19:11:17.273Z,95937.23
2019-04-01T19:13:44.345Z,95939.35
2019-04-01T19:16:12.953Z,95939.93
2019-04-01T19:18:41.961Z,95937.84
2019-04-01T19:21:09.456Z,95941.00
2019-04-01T19:23:36.515Z,95939.27
2019-04-01T19:26:03.858Z,95939.34
2019-04-01T19:28:30.914Z,95939.24
2019-04-01T19:30:58.282Z,95940.41
2019-04-01T19:33:25.344Z,95940.91
2019-04-01T19:35:52.391Z,95945.81
2019-04-01T19:38:21.369Z,95945.71
2019-04-01T19:40:48.919Z,95945.52
2019-04-01T19:43:16.378Z,95943.12
2019-04-01T19:45:44.153Z,95946.16
2019-04-01T19:48:12.838Z,95949.01
2019-04-01T19:50:40.995Z,95948.71
2019-04-01T19:53:08.057Z,95948.61
2019-04-01T19:55:43.933Z,95947.67
2019-04-01T19:58:11.377Z,95946.53
2019-04-01T20:00:38.414Z,95943.43
2019-04-01T20:03:05.472Z,95941.33
2019-04-01T20:05:32.802Z,95949.86
2019-04-01T20:07:59.871Z,95951.22
2019-04-01T20:10:28.467Z,95949.76
2019-04-01T20:12:55.649Z,95948.45
2019-04-01T20:15:23.062Z,95952.88
2019-04-01T20:17:50.120Z,95951.26
2019-04-01T20:20:17.456Z,95947.41
2019-04-01T20:22:44.812Z,95947.91
2019-04-01T20:25:11.858Z,95943.34
2019-04-01T20:27:38.921Z,95939.75
2019-04-01T20:30:05.959Z,95941.78
2019-04-01T20:32:33.474Z,95935.93
2019-04-01T20:35:00.525Z,95941.78
2019-04-01T20:37:29.064Z,95939.34
2019-04-01T20:39:56.265Z,95937.36
2019-04-01T20:42:23.575Z,95929.97
2019-04-01T20:44:51.018Z,95927.52
2019-04-01T20:47:18.066Z,95935.17
2019-04-01T20:49:45.119Z,95930.73
2019-04-01T20:52:12.470Z,95930.05
2019-04-01T20:54:39.536Z,95931.22
2019-04-01T20:57:06.580Z,95931.39
2019-04-01T20:59:33.903Z,95929.45
2019-04-01T21:02:01.257Z,95925.72
2019-04-01T21:04:28.613Z,95927.05
2019-04-01T21:06:55.660Z,95932.02
2019-04-01T21:09:22.721Z,95927.33
2019-04-01T21:11:50.045Z,95924.55
2019-04-01T21:14:17.111Z,95918.34
2019-04-01T21:16:44.484Z,95918.05
2019-04-01T21:19:11.836Z,95921.97
2019-04-01T21:21:39.461Z,95916.94
2019-04-01T21:24:06.834Z,95914.16
2019-04-01T21:26:33.880Z,95918.59
2019-04-01T21:29:01.011Z,95917.48
2019-04-01T21:31:28.407Z,95913.42
2019-04-01T21:33:55.711Z,95917.66
2019-04-01T21:36:22.792Z,95911.83
2019-04-01T21:38:50.148Z,95910.70
2019-04-01T21:41:20.214Z,95911.37
2019-04-01T21:43:46.602Z,95910.88
2019-04-01T21:46:14.161Z,95909.74
2019-04-01T21:48:41.926Z,95908.27
2019-04-01T21:51:08.976Z,95907.62
2019-04-01T21:53:36.328Z,95905.98
2019-04-01T21:56:03.680Z,95901.41
2019-04-01T21:58:31.035Z,95896.53
2019-04-01T22:00:58.409Z,95895.07
2019-04-01T22:03:27.386Z,95897.34
2019-04-01T22:05:54.740Z,95895.72
2019-04-01T22:08:22.113Z,95893.11
2019-04-01T22:10:49.470Z,95886.91
2019-04-01T22:13:16.805Z,95887.73
2019-04-01T22:15:44.110Z,95881.88
2019-04-01T22:18:11.513Z,95882.86
2019-04-01T22:20:40.064Z,95884.48
2019-04-01T22:23:07.659Z,95875.86
2019-04-01T22:25:35.016Z,95877.33
2019-04-01T22:28:02.057Z,95873.09
2019-04-01T22:30:29.414Z,95868.38
2019-04-01T22:32:56.772Z,95874.07
2019-04-01T22:35:24.074Z,95873.58
2019-04-01T22:37:51.587Z,95873.09
2019-04-01T22:40:18.674Z,95868.20
2019-04-01T22:42:45.767Z,95872.93
2019-04-01T22:45:13.063Z,95865.92
2019-04-01T22:47:40.109Z,95864.45
2019-04-01T22:50:07.439Z,95860.72
2019-04-01T22:52:35.423Z,95859.25
2019-04-01T22:55:03.300Z,95857.30
2019-04-01T22:57:31.779Z,95855.50
2019-04-01T22:59:59.113Z,95854.36
2019-04-01T23:02:26.487Z,95854.36
2019-04-01T23:04:53.549Z,95856.31
2019-04-01T23:07:20.592Z,95848.50
2019-04-01T23:09:47.914Z,95849.97
2019-04-01T23:12:15.272Z,95845.08
2019-04-01T23:14:42.326Z,95840.03
2019-04-01T23:17:10.137Z,95840.52
2019-04-01T23:19:37.769Z,95842.64
2019-04-01T23:22:04.810Z,95839.55
2019-04-01T23:24:31.873Z,95844.27
2019-04-01T23:26:59.216Z,95849.16
2019-04-01T23:29:26.571Z,95838.24
2019-04-01T23:31:53.890Z,95833.36
2019-04-01T23:34:21.004Z,95837.09
2019-04-01T23:36:48.059Z,95824.72
2019-04-01T23:39:15.105Z,95824.23
2019-04-01T23:41:46.322Z,95822.14
2019-04-01T23:44:13.364Z,95822.63
2019-04-01T23:46:40.420Z,95820.84
2019-04-01T23:49:08.535Z,95818.72
2019-04-01T23:51:36.248Z,95819.69
2019-04-01T23:54:04.895Z,95819.52
2019-04-01T23:56:33.269Z,95811.70
2019-04-01T23:59:00.552Z,95810.08
